Cloquet Carlton County Airport


Codes: KCOQ/
Name: Cloquet Carlton County Airport
City: Cloquet
Country: United States
Elevation: 1279 ft.

Photos at Cloquet Carlton County Airport


   Photos courtesy of SpottingLog. You can add your own sightings and photos by signing up for a free trial today.



No photos found.

Weather at Cloquet Carlton County Airport


Time (UTC)DescriptionTempratureWindCloud coverageVisibilityPressureHumidity
16-Jun-2024 00:00Light Rain16°C11 mph, SE75%10000m1013hPa88%
16-Jun-2024 03:00Light Rain15°C11 mph, SE83%10000m1012hPa92%
16-Jun-2024 06:00Moderate Rain15°C9 mph, SE92%1687m1009hPa96%
16-Jun-2024 09:00Light Rain14°C7 mph, E100%590m1004hPa99%
16-Jun-2024 12:00Light Rain14°C7 mph, E100%230m1003hPa99%
16-Jun-2024 15:00Overcast Clouds18°C4 mph, S100%5257m1002hPa98%
16-Jun-2024 18:00Overcast Clouds24°C9 mph, SW100%10000m1002hPa80%
16-Jun-2024 21:00Light Rain25°C7 mph, SW100%10000m1002hPa85%
17-Jun-2024 00:00Light Rain22°C9 mph, NW87%10000m1004hPa86%
17-Jun-2024 03:00Light Rain18°C11 mph, NW100%10000m1007hPa89%
17-Jun-2024 06:00Broken Clouds13°C7 mph, NW75%10000m1009hPa76%
17-Jun-2024 09:00Few Clouds11°C4 mph, NW16%10000m1010hPa79%
17-Jun-2024 12:00Scattered Clouds13°C2 mph, NW45%10000m1012hPa75%
17-Jun-2024 15:00Light Rain12°C2 mph, NW100%10000m1012hPa98%
17-Jun-2024 18:00Moderate Rain12°C2 mph, SE100%10000m1013hPa94%
17-Jun-2024 21:00Light Rain12°C7 mph, E100%7999m1011hPa99%
18-Jun-2024 00:00Light Rain12°C7 mph, N100%0m1009hPa99%
18-Jun-2024 03:00Moderate Rain12°C11 mph, E100%117m1008hPa99%
18-Jun-2024 06:00Moderate Rain13°C11 mph, N100%0m1004hPa99%
18-Jun-2024 09:00Heavy Intensity Rain15°C9 mph, N100%0m1003hPa99%
18-Jun-2024 12:00Moderate Rain21°C16 mph, S100%10000m1003hPa97%
18-Jun-2024 15:00Light Rain21°C13 mph, S100%10000m1002hPa98%
18-Jun-2024 18:00Light Rain22°C16 mph, S100%10000m1002hPa95%
18-Jun-2024 21:00Light Rain22°C16 mph, S100%10000m1003hPa97%
19-Jun-2024 00:00Light Rain21°C13 mph, W100%5560m1005hPa97%
19-Jun-2024 03:00Light Rain12°C11 mph, NW100%10000m1012hPa98%
19-Jun-2024 06:00Overcast Clouds11°C11 mph, NW100%10000m1016hPa95%
19-Jun-2024 09:00Overcast Clouds9°C4 mph, NW100%10000m1019hPa97%
19-Jun-2024 12:00Overcast Clouds10°C4 mph, NW100%10000m1022hPa92%
19-Jun-2024 15:00Overcast Clouds16°C7 mph, N100%10000m1022hPa63%
19-Jun-2024 18:00Overcast Clouds21°C4 mph, NW100%10000m1023hPa42%
19-Jun-2024 21:00Overcast Clouds22°C4 mph, NW100%10000m1023hPa41%
20-Jun-2024 00:00Overcast Clouds20°C2 mph, SW100%10000m1023hPa68%
20-Jun-2024 03:00Scattered Clouds13°C4 mph, W35%10000m1025hPa84%
20-Jun-2024 06:00Few Clouds11°C4 mph, N18%10000m1027hPa89%
20-Jun-2024 09:00Clear Sky10°C4 mph, NE2%10000m1028hPa86%
20-Jun-2024 12:00Clear Sky13°C4 mph, E2%10000m1028hPa79%
20-Jun-2024 15:00Clear Sky19°C7 mph, SE3%10000m1028hPa59%
20-Jun-2024 18:00Clear Sky23°C7 mph, SE5%10000m1026hPa47%
20-Jun-2024 21:00Scattered Clouds23°C9 mph, E29%10000m1025hPa50%